sensor_id;sensor_type;location;lat;lon;timestamp;P1;durP1;ratioP1;P2;durP2;ratioP2
54263;SDS011;40178;53.042;6.406;2024-02-21T00:00:51;14.32;;;3.90;;
54263;SDS011;40178;53.042;6.406;2024-02-21T00:03:17;9.48;;;2.90;;
54263;SDS011;40178;53.042;6.406;2024-02-21T00:05:42;14.45;;;3.88;;
54263;SDS011;40178;53.042;6.406;2024-02-21T00:08:08;12.93;;;3.88;;
54263;SDS011;40178;53.042;6.406;2024-02-21T00:10:34;14.18;;;4.13;;
54263;SDS011;40178;53.042;6.406;2024-02-21T00:13:00;14.05;;;3.60;;
54263;SDS011;40178;53.042;6.406;2024-02-21T00:15:26;9.07;;;3.90;;
54263;SDS011;40178;53.042;6.406;2024-02-21T00:17:52;16.23;;;5.00;;
54263;SDS011;40178;53.042;6.406;2024-02-21T00:20:17;15.23;;;4.32;;
54263;SDS011;40178;53.042;6.406;2024-02-21T00:22:43;13.80;;;4.10;;
54263;SDS011;40178;53.042;6.406;2024-02-21T00:25:09;12.43;;;4.22;;
54263;SDS011;40178;53.042;6.406;2024-02-21T00:27:35;12.57;;;3.85;;
54263;SDS011;40178;53.042;6.406;2024-02-21T00:30:01;13.10;;;3.75;;
54263;SDS011;40178;53.042;6.406;2024-02-21T00:32:27;15.10;;;4.45;;
54263;SDS011;40178;53.042;6.406;2024-02-21T00:34:53;16.20;;;4.15;;
54263;SDS011;40178;53.042;6.406;2024-02-21T00:37:18;14.75;;;4.32;;
54263;SDS011;40178;53.042;6.406;2024-02-21T00:39:44;10.95;;;4.22;;
54263;SDS011;40178;53.042;6.406;2024-02-21T00:42:09;14.88;;;4.55;;
54263;SDS011;40178;53.042;6.406;2024-02-21T00:44:35;16.52;;;4.65;;
54263;SDS011;40178;53.042;6.406;2024-02-21T00:47:01;16.25;;;4.82;;
54263;SDS011;40178;53.042;6.406;2024-02-21T00:49:26;18.50;;;5.18;;
54263;SDS011;40178;53.042;6.406;2024-02-21T00:51:52;15.25;;;5.18;;
54263;SDS011;40178;53.042;6.406;2024-02-21T00:54:18;12.80;;;5.15;;
54263;SDS011;40178;53.042;6.406;2024-02-21T00:56:43;21.52;;;6.57;;
54263;SDS011;40178;53.042;6.406;2024-02-21T00:59:09;16.15;;;5.60;;
54263;SDS011;40178;53.042;6.406;2024-02-21T01:01:34;14.05;;;5.18;;
54263;SDS011;40178;53.042;6.406;2024-02-21T01:04:00;17.98;;;5.82;;
54263;SDS011;40178;53.042;6.406;2024-02-21T01:06:25;14.88;;;5.32;;
54263;SDS011;40178;53.042;6.406;2024-02-21T01:08:51;18.67;;;5.43;;
54263;SDS011;40178;53.042;6.406;2024-02-21T01:11:17;15.75;;;6.13;;
54263;SDS011;40178;53.042;6.406;2024-02-21T01:13:43;14.27;;;5.57;;
54263;SDS011;40178;53.042;6.406;2024-02-21T01:16:09;16.65;;;5.43;;
54263;SDS011;40178;53.042;6.406;2024-02-21T01:18:36;17.15;;;5.85;;
54263;SDS011;40178;53.042;6.406;2024-02-21T01:21:03;18.00;;;5.75;;
54263;SDS011;40178;53.042;6.406;2024-02-21T01:23:32;17.75;;;6.53;;
54263;SDS011;40178;53.042;6.406;2024-02-21T01:25:58;19.92;;;6.45;;
54263;SDS011;40178;53.042;6.406;2024-02-21T01:28:23;16.92;;;6.25;;
54263;SDS011;40178;53.042;6.406;2024-02-21T01:30:49;18.63;;;6.43;;
54263;SDS011;40178;53.042;6.406;2024-02-21T01:33:14;19.10;;;6.80;;
54263;SDS011;40178;53.042;6.406;2024-02-21T01:35:41;21.95;;;7.47;;
54263;SDS011;40178;53.042;6.406;2024-02-21T01:38:06;19.92;;;7.35;;
54263;SDS011;40178;53.042;6.406;2024-02-21T01:40:32;17.58;;;7.18;;
54263;SDS011;40178;53.042;6.406;2024-02-21T01:42:57;23.83;;;8.73;;
54263;SDS011;40178;53.042;6.406;2024-02-21T01:45:23;21.17;;;8.85;;
54263;SDS011;40178;53.042;6.406;2024-02-21T01:47:49;20.88;;;8.15;;
54263;SDS011;40178;53.042;6.406;2024-02-21T01:50:15;23.38;;;8.43;;
54263;SDS011;40178;53.042;6.406;2024-02-21T01:52:43;21.98;;;8.88;;
54263;SDS011;40178;53.042;6.406;2024-02-21T01:55:11;29.45;;;9.52;;
54263;SDS011;40178;53.042;6.406;2024-02-21T01:57:39;26.38;;;9.32;;
54263;SDS011;40178;53.042;6.406;2024-02-21T02:00:06;23.15;;;9.85;;
54263;SDS011;40178;53.042;6.406;2024-02-21T02:02:33;29.77;;;10.73;;
54263;SDS011;40178;53.042;6.406;2024-02-21T02:04:59;26.17;;;10.27;;
54263;SDS011;40178;53.042;6.406;2024-02-21T02:07:25;24.42;;;9.25;;
54263;SDS011;40178;53.042;6.406;2024-02-21T02:09:51;28.00;;;10.55;;
54263;SDS011;40178;53.042;6.406;2024-02-21T02:12:17;21.70;;;9.82;;
54263;SDS011;40178;53.042;6.406;2024-02-21T02:14:42;26.13;;;9.57;;
54263;SDS011;40178;53.042;6.406;2024-02-21T02:17:08;27.52;;;10.20;;
54263;SDS011;40178;53.042;6.406;2024-02-21T02:19:34;23.75;;;10.43;;
54263;SDS011;40178;53.042;6.406;2024-02-21T02:22:03;24.83;;;8.75;;
54263;SDS011;40178;53.042;6.406;2024-02-21T02:24:40;23.83;;;9.15;;
54263;SDS011;40178;53.042;6.406;2024-02-21T02:27:05;22.88;;;9.80;;
54263;SDS011;40178;53.042;6.406;2024-02-21T02:29:32;23.35;;;9.77;;
54263;SDS011;40178;53.042;6.406;2024-02-21T02:31:58;25.08;;;9.75;;
54263;SDS011;40178;53.042;6.406;2024-02-21T02:34:23;24.58;;;9.43;;
54263;SDS011;40178;53.042;6.406;2024-02-21T02:36:49;24.30;;;10.43;;
54263;SDS011;40178;53.042;6.406;2024-02-21T02:39:15;27.00;;;10.25;;
54263;SDS011;40178;53.042;6.406;2024-02-21T02:41:40;26.63;;;9.55;;
54263;SDS011;40178;53.042;6.406;2024-02-21T02:44:06;26.42;;;10.70;;
54263;SDS011;40178;53.042;6.406;2024-02-21T02:46:31;23.25;;;10.45;;
54263;SDS011;40178;53.042;6.406;2024-02-21T02:48:57;23.88;;;10.07;;
54263;SDS011;40178;53.042;6.406;2024-02-21T02:51:23;31.30;;;12.00;;
54263;SDS011;40178;53.042;6.406;2024-02-21T02:53:48;24.52;;;11.77;;
54263;SDS011;40178;53.042;6.406;2024-02-21T02:56:14;29.33;;;11.32;;
54263;SDS011;40178;53.042;6.406;2024-02-21T02:58:40;26.33;;;10.93;;
54263;SDS011;40178;53.042;6.406;2024-02-21T03:01:07;28.20;;;10.63;;
54263;SDS011;40178;53.042;6.406;2024-02-21T03:03:33;28.30;;;10.77;;
54263;SDS011;40178;53.042;6.406;2024-02-21T03:05:58;30.88;;;11.48;;
54263;SDS011;40178;53.042;6.406;2024-02-21T03:08:24;30.25;;;11.52;;
54263;SDS011;40178;53.042;6.406;2024-02-21T03:10:50;28.63;;;11.00;;
54263;SDS011;40178;53.042;6.406;2024-02-21T03:13:15;36.83;;;11.60;;
54263;SDS011;40178;53.042;6.406;2024-02-21T03:15:41;28.48;;;10.65;;
54263;SDS011;40178;53.042;6.406;2024-02-21T03:18:06;31.33;;;11.80;;
54263;SDS011;40178;53.042;6.406;2024-02-21T03:20:32;32.90;;;11.63;;
54263;SDS011;40178;53.042;6.406;2024-02-21T03:22:58;31.88;;;11.38;;
54263;SDS011;40178;53.042;6.406;2024-02-21T03:25:23;24.92;;;11.10;;
54263;SDS011;40178;53.042;6.406;2024-02-21T03:27:49;26.42;;;11.18;;
54263;SDS011;40178;53.042;6.406;2024-02-21T03:30:15;27.52;;;11.90;;
54263;SDS011;40178;53.042;6.406;2024-02-21T03:32:40;28.70;;;11.05;;
54263;SDS011;40178;53.042;6.406;2024-02-21T03:35:06;32.80;;;12.45;;
54263;SDS011;40178;53.042;6.406;2024-02-21T03:37:32;27.20;;;12.55;;
54263;SDS011;40178;53.042;6.406;2024-02-21T03:39:57;30.35;;;12.77;;
54263;SDS011;40178;53.042;6.406;2024-02-21T03:42:23;28.98;;;12.45;;
54263;SDS011;40178;53.042;6.406;2024-02-21T03:44:49;26.27;;;12.48;;
54263;SDS011;40178;53.042;6.406;2024-02-21T03:47:14;27.35;;;11.05;;
54263;SDS011;40178;53.042;6.406;2024-02-21T03:49:40;28.77;;;11.90;;
54263;SDS011;40178;53.042;6.406;2024-02-21T03:52:05;29.42;;;11.52;;
54263;SDS011;40178;53.042;6.406;2024-02-21T03:54:31;32.00;;;13.68;;
54263;SDS011;40178;53.042;6.406;2024-02-21T03:56:57;24.48;;;11.10;;
54263;SDS011;40178;53.042;6.406;2024-02-21T03:59:22;26.35;;;11.10;;
54263;SDS011;40178;53.042;6.406;2024-02-21T04:01:51;32.38;;;11.35;;
54263;SDS011;40178;53.042;6.406;2024-02-21T04:04:17;27.65;;;11.40;;
54263;SDS011;40178;53.042;6.406;2024-02-21T04:06:47;30.55;;;11.70;;
54263;SDS011;40178;53.042;6.406;2024-02-21T04:09:13;27.15;;;11.90;;
54263;SDS011;40178;53.042;6.406;2024-02-21T04:11:39;27.70;;;11.48;;
54263;SDS011;40178;53.042;6.406;2024-02-21T04:14:04;33.50;;;12.65;;
54263;SDS011;40178;53.042;6.406;2024-02-21T04:16:30;22.50;;;10.27;;
54263;SDS011;40178;53.042;6.406;2024-02-21T04:18:56;28.20;;;11.52;;
54263;SDS011;40178;53.042;6.406;2024-02-21T04:21:21;28.73;;;11.70;;
54263;SDS011;40178;53.042;6.406;2024-02-21T04:23:47;31.42;;;11.45;;
54263;SDS011;40178;53.042;6.406;2024-02-21T04:26:12;25.08;;;11.23;;
54263;SDS011;40178;53.042;6.406;2024-02-21T04:28:38;28.70;;;10.27;;
54263;SDS011;40178;53.042;6.406;2024-02-21T04:31:04;27.50;;;10.38;;
54263;SDS011;40178;53.042;6.406;2024-02-21T04:33:29;36.83;;;11.05;;
54263;SDS011;40178;53.042;6.406;2024-02-21T04:35:55;21.95;;;9.90;;
54263;SDS011;40178;53.042;6.406;2024-02-21T04:38:20;24.25;;;9.90;;
54263;SDS011;40178;53.042;6.406;2024-02-21T04:40:46;21.55;;;10.35;;
54263;SDS011;40178;53.042;6.406;2024-02-21T04:43:12;25.38;;;10.07;;
54263;SDS011;40178;53.042;6.406;2024-02-21T04:45:37;23.35;;;9.32;;
54263;SDS011;40178;53.042;6.406;2024-02-21T04:48:03;24.05;;;9.50;;
54263;SDS011;40178;53.042;6.406;2024-02-21T04:50:29;26.58;;;10.30;;
54263;SDS011;40178;53.042;6.406;2024-02-21T04:52:54;21.20;;;9.15;;
54263;SDS011;40178;53.042;6.406;2024-02-21T04:55:20;23.77;;;10.00;;
54263;SDS011;40178;53.042;6.406;2024-02-21T04:57:45;29.27;;;9.38;;
54263;SDS011;40178;53.042;6.406;2024-02-21T05:00:11;26.67;;;8.05;;
54263;SDS011;40178;53.042;6.406;2024-02-21T05:02:37;24.30;;;8.48;;
54263;SDS011;40178;53.042;6.406;2024-02-21T05:05:03;29.33;;;9.38;;
54263;SDS011;40178;53.042;6.406;2024-02-21T05:07:29;26.80;;;8.75;;
54263;SDS011;40178;53.042;6.406;2024-02-21T05:09:54;22.80;;;9.25;;
54263;SDS011;40178;53.042;6.406;2024-02-21T05:12:20;26.42;;;9.02;;
54263;SDS011;40178;53.042;6.406;2024-02-21T05:14:45;27.05;;;9.90;;
54263;SDS011;40178;53.042;6.406;2024-02-21T05:17:12;29.30;;;9.98;;
54263;SDS011;40178;53.042;6.406;2024-02-21T05:19:37;23.85;;;8.88;;
54263;SDS011;40178;53.042;6.406;2024-02-21T05:22:03;30.48;;;10.05;;
54263;SDS011;40178;53.042;6.406;2024-02-21T05:24:29;33.33;;;10.65;;
54263;SDS011;40178;53.042;6.406;2024-02-21T05:26:54;26.08;;;10.82;;
54263;SDS011;40178;53.042;6.406;2024-02-21T05:29:20;23.42;;;9.85;;
54263;SDS011;40178;53.042;6.406;2024-02-21T05:36:46;22.73;;;9.45;;
54263;SDS011;40178;53.042;6.406;2024-02-21T05:39:14;23.88;;;10.07;;
54263;SDS011;40178;53.042;6.406;2024-02-21T05:41:40;25.38;;;10.10;;
54263;SDS011;40178;53.042;6.406;2024-02-21T05:44:06;30.23;;;10.38;;
54263;SDS011;40178;53.042;6.406;2024-02-21T05:46:32;29.58;;;10.82;;
54263;SDS011;40178;53.042;6.406;2024-02-21T05:48:58;25.58;;;9.98;;
54263;SDS011;40178;53.042;6.406;2024-02-21T05:51:23;31.10;;;11.20;;
54263;SDS011;40178;53.042;6.406;2024-02-21T05:53:49;24.50;;;9.75;;
54263;SDS011;40178;53.042;6.406;2024-02-21T05:56:14;28.75;;;11.05;;
54263;SDS011;40178;53.042;6.406;2024-02-21T05:58:41;29.55;;;10.65;;
54263;SDS011;40178;53.042;6.406;2024-02-21T06:01:07;27.88;;;9.52;;
54263;SDS011;40178;53.042;6.406;2024-02-21T06:03:33;43.03;;;10.98;;
54263;SDS011;40178;53.042;6.406;2024-02-21T06:05:59;28.80;;;11.40;;
54263;SDS011;40178;53.042;6.406;2024-02-21T06:08:25;29.15;;;12.27;;
54263;SDS011;40178;53.042;6.406;2024-02-21T06:10:51;30.88;;;11.43;;
54263;SDS011;40178;53.042;6.406;2024-02-21T06:13:19;37.42;;;12.70;;
54263;SDS011;40178;53.042;6.406;2024-02-21T06:15:46;28.13;;;11.95;;
54263;SDS011;40178;53.042;6.406;2024-02-21T06:18:12;31.50;;;13.07;;
54263;SDS011;40178;53.042;6.406;2024-02-21T06:20:38;31.02;;;12.70;;
54263;SDS011;40178;53.042;6.406;2024-02-21T06:23:05;31.02;;;13.90;;
54263;SDS011;40178;53.042;6.406;2024-02-21T06:25:31;37.30;;;15.57;;
54263;SDS011;40178;53.042;6.406;2024-02-21T06:27:57;40.05;;;16.63;;
54263;SDS011;40178;53.042;6.406;2024-02-21T06:30:22;42.83;;;15.02;;
54263;SDS011;40178;53.042;6.406;2024-02-21T06:32:48;52.03;;;17.42;;
54263;SDS011;40178;53.042;6.406;2024-02-21T06:35:14;52.45;;;17.38;;
54263;SDS011;40178;53.042;6.406;2024-02-21T06:37:39;41.08;;;17.33;;
54263;SDS011;40178;53.042;6.406;2024-02-21T06:40:05;43.17;;;16.15;;
54263;SDS011;40178;53.042;6.406;2024-02-21T06:42:31;42.45;;;15.60;;
54263;SDS011;40178;53.042;6.406;2024-02-21T06:44:57;35.75;;;14.70;;
54263;SDS011;40178;53.042;6.406;2024-02-21T06:47:23;40.22;;;14.25;;
54263;SDS011;40178;53.042;6.406;2024-02-21T06:49:49;44.28;;;12.80;;
54263;SDS011;40178;53.042;6.406;2024-02-21T06:52:17;44.78;;;13.13;;
54263;SDS011;40178;53.042;6.406;2024-02-21T06:54:45;44.85;;;13.30;;
54263;SDS011;40178;53.042;6.406;2024-02-21T06:57:12;33.08;;;12.25;;
54263;SDS011;40178;53.042;6.406;2024-02-21T06:59:38;34.55;;;10.98;;
54263;SDS011;40178;53.042;6.406;2024-02-21T07:02:03;47.67;;;12.35;;
54263;SDS011;40178;53.042;6.406;2024-02-21T07:04:29;33.45;;;10.65;;
54263;SDS011;40178;53.042;6.406;2024-02-21T07:06:55;37.25;;;10.63;;
54263;SDS011;40178;53.042;6.406;2024-02-21T07:09:20;30.45;;;10.43;;
54263;SDS011;40178;53.042;6.406;2024-02-21T07:11:46;32.42;;;10.10;;
54263;SDS011;40178;53.042;6.406;2024-02-21T07:14:11;30.73;;;9.32;;
54263;SDS011;40178;53.042;6.406;2024-02-21T07:16:39;37.03;;;10.35;;
54263;SDS011;40178;53.042;6.406;2024-02-21T07:19:04;30.42;;;9.35;;
54263;SDS011;40178;53.042;6.406;2024-02-21T07:21:30;29.70;;;10.05;;
54263;SDS011;40178;53.042;6.406;2024-02-21T07:23:56;26.17;;;9.45;;
54263;SDS011;40178;53.042;6.406;2024-02-21T07:26:22;26.40;;;8.82;;
54263;SDS011;40178;53.042;6.406;2024-02-21T07:28:47;31.90;;;9.57;;
54263;SDS011;40178;53.042;6.406;2024-02-21T07:31:13;22.95;;;9.07;;
54263;SDS011;40178;53.042;6.406;2024-02-21T07:33:39;28.60;;;8.65;;
54263;SDS011;40178;53.042;6.406;2024-02-21T07:36:09;28.52;;;9.27;;
54263;SDS011;40178;53.042;6.406;2024-02-21T07:38:36;24.55;;;8.90;;
54263;SDS011;40178;53.042;6.406;2024-02-21T07:41:02;28.98;;;7.97;;
54263;SDS011;40178;53.042;6.406;2024-02-21T07:43:29;23.48;;;8.00;;
54263;SDS011;40178;53.042;6.406;2024-02-21T07:45:55;26.30;;;7.53;;
54263;SDS011;40178;53.042;6.406;2024-02-21T07:48:21;23.05;;;7.97;;
54263;SDS011;40178;53.042;6.406;2024-02-21T07:50:50;24.38;;;8.15;;
54263;SDS011;40178;53.042;6.406;2024-02-21T07:53:16;21.25;;;7.47;;
54263;SDS011;40178;53.042;6.406;2024-02-21T07:55:41;20.30;;;7.40;;
54263;SDS011;40178;53.042;6.406;2024-02-21T07:58:07;17.95;;;7.45;;
54263;SDS011;40178;53.042;6.406;2024-02-21T08:00:33;19.73;;;6.80;;
54263;SDS011;40178;53.042;6.406;2024-02-21T08:02:59;24.05;;;8.45;;
54263;SDS011;40178;53.042;6.406;2024-02-21T08:05:24;18.98;;;8.45;;
54263;SDS011;40178;53.042;6.406;2024-02-21T08:07:50;19.95;;;7.10;;
54263;SDS011;40178;53.042;6.406;2024-02-21T08:10:15;20.10;;;7.82;;
54263;SDS011;40178;53.042;6.406;2024-02-21T08:12:41;23.00;;;8.43;;
54263;SDS011;40178;53.042;6.406;2024-02-21T08:15:07;16.90;;;8.43;;
54263;SDS011;40178;53.042;6.406;2024-02-21T08:17:35;17.55;;;7.82;;
54263;SDS011;40178;53.042;6.406;2024-02-21T08:20:01;19.02;;;8.80;;
54263;SDS011;40178;53.042;6.406;2024-02-21T08:22:28;19.23;;;9.05;;
54263;SDS011;40178;53.042;6.406;2024-02-21T08:24:53;26.98;;;10.02;;
54263;SDS011;40178;53.042;6.406;2024-02-21T08:27:19;22.65;;;11.23;;
54263;SDS011;40178;53.042;6.406;2024-02-21T08:29:45;25.42;;;12.38;;
54263;SDS011;40178;53.042;6.406;2024-02-21T08:32:10;27.70;;;12.75;;
54263;SDS011;40178;53.042;6.406;2024-02-21T08:34:36;30.48;;;12.85;;
54263;SDS011;40178;53.042;6.406;2024-02-21T08:37:01;30.60;;;14.70;;
54263;SDS011;40178;53.042;6.406;2024-02-21T08:39:27;31.23;;;14.23;;
54263;SDS011;40178;53.042;6.406;2024-02-21T08:41:55;29.88;;;13.75;;
54263;SDS011;40178;53.042;6.406;2024-02-21T08:44:24;26.45;;;14.23;;
54263;SDS011;40178;53.042;6.406;2024-02-21T08:46:51;27.83;;;14.13;;
54263;SDS011;40178;53.042;6.406;2024-02-21T08:49:16;32.25;;;14.05;;
54263;SDS011;40178;53.042;6.406;2024-02-21T08:51:42;33.03;;;14.43;;
54263;SDS011;40178;53.042;6.406;2024-02-21T08:54:08;27.98;;;14.60;;
54263;SDS011;40178;53.042;6.406;2024-02-21T08:56:34;31.52;;;14.70;;
54263;SDS011;40178;53.042;6.406;2024-02-21T08:59:00;26.98;;;15.60;;
54263;SDS011;40178;53.042;6.406;2024-02-21T09:01:26;33.75;;;16.27;;
54263;SDS011;40178;53.042;6.406;2024-02-21T09:03:52;27.33;;;14.43;;
54263;SDS011;40178;53.042;6.406;2024-02-21T09:06:19;27.40;;;13.88;;
54263;SDS011;40178;53.042;6.406;2024-02-21T09:08:47;26.45;;;14.20;;
54263;SDS011;40178;53.042;6.406;2024-02-21T09:11:13;26.05;;;13.93;;
54263;SDS011;40178;53.042;6.406;2024-02-21T09:13:39;30.77;;;15.23;;
54263;SDS011;40178;53.042;6.406;2024-02-21T09:16:05;30.25;;;15.13;;
54263;SDS011;40178;53.042;6.406;2024-02-21T09:18:31;25.85;;;13.93;;
54263;SDS011;40178;53.042;6.406;2024-02-21T09:20:57;26.83;;;15.25;;
54263;SDS011;40178;53.042;6.406;2024-02-21T09:23:25;24.42;;;13.63;;
54263;SDS011;40178;53.042;6.406;2024-02-21T09:25:51;27.90;;;14.55;;
54263;SDS011;40178;53.042;6.406;2024-02-21T09:28:16;27.88;;;15.13;;
54263;SDS011;40178;53.042;6.406;2024-02-21T09:30:42;24.70;;;15.10;;
54263;SDS011;40178;53.042;6.406;2024-02-21T09:33:08;29.27;;;13.85;;
54263;SDS011;40178;53.042;6.406;2024-02-21T09:35:33;26.27;;;15.88;;
54263;SDS011;40178;53.042;6.406;2024-02-21T09:37:59;26.08;;;14.43;;
54263;SDS011;40178;53.042;6.406;2024-02-21T09:40:25;26.60;;;15.63;;
54263;SDS011;40178;53.042;6.406;2024-02-21T09:42:53;29.77;;;13.93;;
54263;SDS011;40178;53.042;6.406;2024-02-21T09:45:27;22.08;;;15.23;;
54263;SDS011;40178;53.042;6.406;2024-02-21T09:50:56;25.23;;;15.00;;
54263;SDS011;40178;53.042;6.406;2024-02-21T09:53:24;28.30;;;15.90;;
54263;SDS011;40178;53.042;6.406;2024-02-21T09:55:50;24.20;;;15.85;;
54263;SDS011;40178;53.042;6.406;2024-02-21T09:58:16;25.65;;;15.77;;
54263;SDS011;40178;53.042;6.406;2024-02-21T10:00:41;27.27;;;17.05;;
54263;SDS011;40178;53.042;6.406;2024-02-21T10:03:07;26.55;;;17.30;;
54263;SDS011;40178;53.042;6.406;2024-02-21T10:05:37;30.25;;;17.95;;
54263;SDS011;40178;53.042;6.406;2024-02-21T10:08:04;33.35;;;18.52;;
54263;SDS011;40178;53.042;6.406;2024-02-21T10:10:33;32.15;;;18.65;;
54263;SDS011;40178;53.042;6.406;2024-02-21T10:13:09;31.48;;;18.95;;
54263;SDS011;40178;53.042;6.406;2024-02-21T10:15:36;30.77;;;17.63;;
54263;SDS011;40178;53.042;6.406;2024-02-21T10:18:02;30.80;;;19.38;;
54263;SDS011;40178;53.042;6.406;2024-02-21T10:20:32;31.95;;;18.80;;
54263;SDS011;40178;53.042;6.406;2024-02-21T10:23:05;31.40;;;18.27;;
54263;SDS011;40178;53.042;6.406;2024-02-21T10:25:37;33.45;;;20.00;;
54263;SDS011;40178;53.042;6.406;2024-02-21T10:28:13;30.02;;;18.50;;
54263;SDS011;40178;53.042;6.406;2024-02-21T10:30:49;28.48;;;17.50;;
54263;SDS011;40178;53.042;6.406;2024-02-21T10:33:16;28.08;;;17.10;;
54263;SDS011;40178;53.042;6.406;2024-02-21T10:35:45;29.73;;;18.15;;
54263;SDS011;40178;53.042;6.406;2024-02-21T10:38:11;30.42;;;18.13;;
54263;SDS011;40178;53.042;6.406;2024-02-21T10:40:38;31.25;;;18.65;;
54263;SDS011;40178;53.042;6.406;2024-02-21T10:43:03;29.65;;;18.15;;
54263;SDS011;40178;53.042;6.406;2024-02-21T10:45:36;29.58;;;18.52;;
54263;SDS011;40178;53.042;6.406;2024-02-21T10:50:31;29.77;;;17.60;;
54263;SDS011;40178;53.042;6.406;2024-02-21T10:53:04;27.45;;;16.17;;
54263;SDS011;40178;53.042;6.406;2024-02-21T10:55:45;27.13;;;17.08;;
54263;SDS011;40178;53.042;6.406;2024-02-21T10:58:21;25.13;;;14.63;;
54263;SDS011;40178;53.042;6.406;2024-02-21T11:00:47;23.48;;;14.82;;
54263;SDS011;40178;53.042;6.406;2024-02-21T11:03:15;25.60;;;16.52;;
54263;SDS011;40178;53.042;6.406;2024-02-21T11:05:40;26.02;;;14.95;;
54263;SDS011;40178;53.042;6.406;2024-02-21T11:08:07;22.40;;;14.10;;
54263;SDS011;40178;53.042;6.406;2024-02-21T11:10:36;24.33;;;14.85;;
54263;SDS011;40178;53.042;6.406;2024-02-21T11:13:08;23.60;;;14.73;;
54263;SDS011;40178;53.042;6.406;2024-02-21T11:15:34;21.60;;;13.23;;
54263;SDS011;40178;53.042;6.406;2024-02-21T11:18:00;21.30;;;13.43;;
54263;SDS011;40178;53.042;6.406;2024-02-21T11:20:32;23.10;;;13.30;;
54263;SDS011;40178;53.042;6.406;2024-02-21T11:23:02;19.52;;;12.30;;
54263;SDS011;40178;53.042;6.406;2024-02-21T11:25:28;22.02;;;13.05;;
54263;SDS011;40178;53.042;6.406;2024-02-21T11:28:04;20.20;;;12.90;;
54263;SDS011;40178;53.042;6.406;2024-02-21T11:30:32;18.30;;;11.90;;
54263;SDS011;40178;53.042;6.406;2024-02-21T11:33:02;19.55;;;11.30;;
54263;SDS011;40178;53.042;6.406;2024-02-21T11:35:32;19.40;;;11.65;;
54263;SDS011;40178;53.042;6.406;2024-02-21T11:38:08;16.75;;;11.10;;
54263;SDS011;40178;53.042;6.406;2024-02-21T11:40:38;19.63;;;11.95;;
54263;SDS011;40178;53.042;6.406;2024-02-21T11:43:05;16.67;;;10.00;;
54263;SDS011;40178;53.042;6.406;2024-02-21T11:45:31;17.67;;;11.38;;
54263;SDS011;40178;53.042;6.406;2024-02-21T11:47:57;15.30;;;10.30;;
54263;SDS011;40178;53.042;6.406;2024-02-21T11:50:25;20.05;;;12.07;;
54263;SDS011;40178;53.042;6.406;2024-02-21T11:52:54;17.52;;;10.52;;
54263;SDS011;40178;53.042;6.406;2024-02-21T11:55:20;16.42;;;11.10;;
54263;SDS011;40178;53.042;6.406;2024-02-21T11:57:47;18.27;;;10.75;;
54263;SDS011;40178;53.042;6.406;2024-02-21T12:00:16;21.13;;;10.93;;
54263;SDS011;40178;53.042;6.406;2024-02-21T12:02:45;15.77;;;9.85;;
54263;SDS011;40178;53.042;6.406;2024-02-21T12:05:11;20.05;;;10.57;;
54263;SDS011;40178;53.042;6.406;2024-02-21T12:07:37;18.05;;;10.57;;
54263;SDS011;40178;53.042;6.406;2024-02-21T12:10:14;18.38;;;9.85;;
54263;SDS011;40178;53.042;6.406;2024-02-21T12:12:40;18.00;;;8.88;;
54263;SDS011;40178;53.042;6.406;2024-02-21T12:15:06;14.43;;;10.02;;
54263;SDS011;40178;53.042;6.406;2024-02-21T12:17:33;13.75;;;8.93;;
54263;SDS011;40178;53.042;6.406;2024-02-21T12:20:00;15.23;;;9.07;;
54263;SDS011;40178;53.042;6.406;2024-02-21T12:22:29;14.18;;;8.88;;
54263;SDS011;40178;53.042;6.406;2024-02-21T12:24:57;13.82;;;8.40;;
54263;SDS011;40178;53.042;6.406;2024-02-21T12:27:23;12.82;;;7.50;;
54263;SDS011;40178;53.042;6.406;2024-02-21T12:29:51;12.93;;;8.20;;
54263;SDS011;40178;53.042;6.406;2024-02-21T12:32:17;14.60;;;8.57;;
54263;SDS011;40178;53.042;6.406;2024-02-21T12:34:42;14.65;;;8.00;;
54263;SDS011;40178;53.042;6.406;2024-02-21T12:37:08;15.55;;;8.30;;
54263;SDS011;40178;53.042;6.406;2024-02-21T12:39:37;12.75;;;8.40;;
54263;SDS011;40178;53.042;6.406;2024-02-21T12:42:03;12.27;;;8.20;;
54263;SDS011;40178;53.042;6.406;2024-02-21T12:44:29;13.18;;;8.68;;
54263;SDS011;40178;53.042;6.406;2024-02-21T12:46:55;13.02;;;7.85;;
54263;SDS011;40178;53.042;6.406;2024-02-21T12:49:20;14.27;;;8.23;;
54263;SDS011;40178;53.042;6.406;2024-02-21T12:51:46;11.52;;;7.55;;
54263;SDS011;40178;53.042;6.406;2024-02-21T12:54:12;11.48;;;6.82;;
54263;SDS011;40178;53.042;6.406;2024-02-21T12:56:38;12.77;;;8.35;;
54263;SDS011;40178;53.042;6.406;2024-02-21T12:59:05;10.63;;;6.43;;
54263;SDS011;40178;53.042;6.406;2024-02-21T13:01:34;11.93;;;7.35;;
54263;SDS011;40178;53.042;6.406;2024-02-21T13:04:00;12.82;;;7.03;;
54263;SDS011;40178;53.042;6.406;2024-02-21T13:06:26;10.57;;;6.72;;
54263;SDS011;40178;53.042;6.406;2024-02-21T13:08:52;12.63;;;6.90;;
54263;SDS011;40178;53.042;6.406;2024-02-21T13:11:18;10.60;;;5.95;;
54263;SDS011;40178;53.042;6.406;2024-02-21T13:13:44;12.05;;;6.57;;
54263;SDS011;40178;53.042;6.406;2024-02-21T13:16:10;11.60;;;6.60;;
54263;SDS011;40178;53.042;6.406;2024-02-21T13:18:35;10.77;;;6.00;;
54263;SDS011;40178;53.042;6.406;2024-02-21T13:21:03;9.80;;;6.25;;
54263;SDS011;40178;53.042;6.406;2024-02-21T13:23:29;9.63;;;5.78;;
54263;SDS011;40178;53.042;6.406;2024-02-21T13:25:55;10.00;;;6.15;;
54263;SDS011;40178;53.042;6.406;2024-02-21T13:28:21;9.50;;;5.40;;
54263;SDS011;40178;53.042;6.406;2024-02-21T13:30:46;11.00;;;5.82;;
54263;SDS011;40178;53.042;6.406;2024-02-21T13:33:12;9.63;;;5.05;;
54263;SDS011;40178;53.042;6.406;2024-02-21T13:35:38;9.27;;;5.75;;
54263;SDS011;40178;53.042;6.406;2024-02-21T13:38:04;11.57;;;5.72;;
54263;SDS011;40178;53.042;6.406;2024-02-21T13:40:30;8.50;;;5.30;;
54263;SDS011;40178;53.042;6.406;2024-02-21T13:42:55;8.45;;;5.43;;
54263;SDS011;40178;53.042;6.406;2024-02-21T13:45:21;7.43;;;4.88;;
54263;SDS011;40178;53.042;6.406;2024-02-21T13:47:47;10.25;;;5.50;;
54263;SDS011;40178;53.042;6.406;2024-02-21T13:50:13;8.95;;;4.85;;
54263;SDS011;40178;53.042;6.406;2024-02-21T13:52:42;9.25;;;5.22;;
54263;SDS011;40178;53.042;6.406;2024-02-21T13:55:08;9.80;;;6.10;;
54263;SDS011;40178;53.042;6.406;2024-02-21T13:57:37;8.50;;;4.85;;
54263;SDS011;40178;53.042;6.406;2024-02-21T14:00:03;7.93;;;5.35;;
54263;SDS011;40178;53.042;6.406;2024-02-21T14:02:29;8.25;;;5.40;;
54263;SDS011;40178;53.042;6.406;2024-02-21T14:04:55;8.93;;;5.55;;
54263;SDS011;40178;53.042;6.406;2024-02-21T14:07:21;8.05;;;5.32;;
54263;SDS011;40178;53.042;6.406;2024-02-21T14:09:47;9.00;;;5.88;;
54263;SDS011;40178;53.042;6.406;2024-02-21T14:12:13;8.75;;;5.68;;
54263;SDS011;40178;53.042;6.406;2024-02-21T14:14:39;9.35;;;6.05;;
54263;SDS011;40178;53.042;6.406;2024-02-21T14:17:04;10.20;;;6.47;;
54263;SDS011;40178;53.042;6.406;2024-02-21T14:19:30;8.00;;;5.63;;
54263;SDS011;40178;53.042;6.406;2024-02-21T14:21:56;10.90;;;6.80;;
54263;SDS011;40178;53.042;6.406;2024-02-21T14:24:22;11.30;;;6.65;;
54263;SDS011;40178;53.042;6.406;2024-02-21T14:26:48;9.70;;;5.78;;
54263;SDS011;40178;53.042;6.406;2024-02-21T14:29:14;10.30;;;6.47;;
54263;SDS011;40178;53.042;6.406;2024-02-21T14:31:40;7.85;;;5.53;;
54263;SDS011;40178;53.042;6.406;2024-02-21T14:34:05;11.85;;;6.15;;